createdAt,value
2018-02-01T19:44:36.195Z,143.03
2018-02-01T19:47:04.349Z,186.13
2018-02-01T19:49:31.630Z,592.40
2018-02-01T19:51:59.109Z,660.63
2018-02-01T19:54:26.448Z,516.30
2018-02-01T19:56:53.679Z,456.80
2018-02-01T19:59:20.946Z,434.43
2018-02-01T20:01:48.186Z,438.97
2018-02-01T20:04:15.418Z,757.50
2018-02-01T20:06:42.675Z,781.17
2018-02-01T20:09:10.063Z,695.77
2018-02-01T20:11:37.952Z,650.73
2018-02-01T20:14:05.295Z,628.10
2018-02-01T20:16:32.702Z,620.77
2018-02-01T20:19:00.044Z,598.13
2018-02-01T20:21:27.287Z,637.90
2018-02-01T20:23:54.762Z,709.73
2018-02-01T20:26:22.077Z,662.77
2018-02-01T20:28:49.336Z,644.03
2018-02-01T20:31:16.672Z,801.57
2018-02-01T20:33:43.970Z,762.97
2018-02-01T20:36:11.242Z,740.77
2018-02-01T20:38:38.486Z,708.97
2018-02-01T20:41:05.839Z,707.00
2018-02-01T20:43:33.083Z,702.43
2018-02-01T20:46:00.318Z,684.00
2018-02-01T20:48:27.615Z,807.80
2018-02-01T20:50:54.857Z,822.13
2018-02-01T20:53:22.234Z,783.20
2018-02-01T20:55:49.726Z,838.07
2018-02-01T20:58:17.068Z,860.40
2018-02-01T21:00:44.726Z,840.97
2018-02-01T21:03:11.972Z,823.57
2018-02-01T21:05:39.215Z,790.37
2018-02-01T21:08:06.456Z,767.07
2018-02-01T21:10:33.693Z,767.57
2018-02-01T21:13:00.944Z,755.57
2018-02-01T21:15:28.206Z,746.83
2018-02-01T21:17:55.469Z,801.87
2018-02-01T21:20:22.721Z,806.63
2018-02-01T21:22:49.981Z,792.60
2018-02-01T21:25:17.266Z,791.47
2018-02-01T21:27:44.478Z,762.27
2018-02-01T21:30:11.717Z,828.33
2018-02-01T21:32:38.980Z,794.67
2018-02-01T21:35:06.266Z,836.50
2018-02-01T21:37:33.526Z,807.73
2018-02-01T21:40:00.774Z,767.53
2018-02-01T21:42:28.088Z,597.53
2018-02-01T21:44:55.324Z,526.43
2018-02-01T21:47:22.577Z,404.40
2018-02-01T21:49:49.826Z,320.63
2018-02-01T21:52:17.154Z,230.57
2018-02-01T21:54:44.659Z,163.67
2018-02-01T21:57:12.657Z,142.23
2018-02-01T21:59:40.697Z,113.17
2018-02-01T22:02:08.679Z,88.90
2018-02-01T22:04:36.633Z,72.43
2018-02-01T22:07:04.809Z,55.97
2018-02-01T22:09:32.183Z,77.07
2018-02-01T22:12:00.541Z,108.17
2018-02-01T22:14:28.242Z,199.30
2018-02-01T22:16:56.171Z,121.00
2018-02-01T22:19:24.543Z,98.27
2018-02-01T22:21:52.163Z,80.57
2018-02-01T22:24:19.625Z,64.00
2018-02-01T22:26:47.394Z,51.43
2018-02-01T22:29:14.902Z,39.27
2018-02-01T22:31:42.911Z,37.40
2018-02-01T22:34:11.001Z,30.77
2018-02-01T22:36:40.131Z,88.17
2018-02-01T22:39:08.096Z,85.40
2018-02-01T22:41:35.860Z,120.03
2018-02-01T22:44:04.034Z,132.67
2018-02-01T22:46:31.864Z,146.27
2018-02-01T22:48:59.578Z,110.30
2018-02-01T22:51:27.903Z,96.00
2018-02-01T22:53:55.782Z,94.03
2018-02-01T22:56:23.753Z,94.33
2018-02-01T22:58:51.190Z,89.93
2018-02-01T23:01:18.935Z,89.83
2018-02-01T23:03:46.413Z,86.33
2018-02-01T23:06:14.568Z,91.10
2018-02-01T23:08:42.252Z,84.30
2018-02-01T23:11:09.618Z,84.13
2018-02-01T23:13:36.996Z,81.53
2018-02-01T23:16:04.398Z,84.27
2018-02-01T23:18:31.638Z,84.53
2018-02-01T23:21:00.429Z,85.00
2018-02-01T23:23:28.117Z,97.33
2018-02-01T23:25:55.760Z,184.00
2018-02-01T23:28:23.743Z,134.53
2018-02-01T23:30:52.045Z,102.67
2018-02-01T23:33:19.790Z,87.17
2018-02-01T23:35:47.608Z,86.80
2018-02-01T23:38:15.145Z,85.07
2018-02-01T23:40:43.016Z,91.43
2018-02-01T23:43:10.776Z,101.60
2018-02-01T23:45:38.135Z,131.17
2018-02-01T23:48:05.506Z,157.03
2018-02-01T23:50:33.450Z,193.20
2018-02-01T23:53:01.282Z,178.13
2018-02-01T23:55:28.614Z,166.63
2018-02-01T23:57:55.858Z,175.00
